createdAt,value
2023-01-08T00:01:13.223Z,14.55
2023-01-08T00:03:40.994Z,14.35
2023-01-08T00:06:12.956Z,14.41
2023-01-08T00:08:40.211Z,14.47
2023-01-08T00:11:07.872Z,14.57
2023-01-08T00:13:35.674Z,14.68
2023-01-08T00:16:12.482Z,14.68
2023-01-08T00:18:40.184Z,14.81
2023-01-08T00:21:07.427Z,14.58
2023-01-08T00:23:35.355Z,14.29
2023-01-08T00:26:03.690Z,14.56
2023-01-08T00:28:31.189Z,14.50
2023-01-08T00:30:58.644Z,14.28
2023-01-08T00:33:26.153Z,14.52
2023-01-08T00:35:53.445Z,14.32
2023-01-08T00:38:20.866Z,14.52
2023-01-08T00:40:48.468Z,14.40
2023-01-08T00:43:15.753Z,14.30
2023-01-08T00:45:43.029Z,14.52
2023-01-08T00:48:11.662Z,14.53
2023-01-08T00:50:38.931Z,14.24
2023-01-08T00:53:06.333Z,14.12
2023-01-08T00:55:33.617Z,14.07
2023-01-08T00:58:00.893Z,13.94
2023-01-08T01:00:28.661Z,13.96
2023-01-08T01:02:55.894Z,14.04
2023-01-08T01:05:23.144Z,13.97
2023-01-08T01:07:50.470Z,13.98
2023-01-08T01:10:18.076Z,13.98
2023-01-08T01:12:45.698Z,14.14
2023-01-08T01:15:15.252Z,13.72
2023-01-08T01:17:43.872Z,13.83
2023-01-08T01:20:14.290Z,14.15
2023-01-08T01:22:42.642Z,14.08
2023-01-08T01:25:10.515Z,14.08
2023-01-08T01:27:37.909Z,13.93
2023-01-08T01:30:06.023Z,14.10
2023-01-08T01:32:33.542Z,13.96
2023-01-08T01:35:00.960Z,13.94
2023-01-08T01:37:28.364Z,13.95
2023-01-08T01:39:56.623Z,13.76
2023-01-08T01:42:42.144Z,13.93
2023-01-08T01:45:24.258Z,13.72
2023-01-08T01:48:00.899Z,13.85
2023-01-08T01:50:32.234Z,14.13
2023-01-08T01:53:12.340Z,13.80
2023-01-08T01:55:42.137Z,13.93
2023-01-08T01:58:18.163Z,13.89
2023-01-08T02:00:45.552Z,13.83
2023-01-08T02:03:14.809Z,13.86
2023-01-08T02:05:56.684Z,13.85
2023-01-08T02:08:50.721Z,13.66
2023-01-08T02:11:25.367Z,13.29
2023-01-08T02:14:19.104Z,13.49
2023-01-08T02:16:53.418Z,13.70
2023-01-08T02:19:35.859Z,13.54
2023-01-08T02:22:15.967Z,13.56
2023-01-08T02:25:18.645Z,13.42
2023-01-08T02:27:48.221Z,13.48
2023-01-08T02:30:15.589Z,13.69
2023-01-08T02:32:44.280Z,13.47
2023-01-08T02:35:12.212Z,13.29
2023-01-08T02:37:39.934Z,13.55
2023-01-08T02:40:27.438Z,14.01
2023-01-08T02:43:03.951Z,13.57
2023-01-08T02:45:44.376Z,13.32
2023-01-08T02:48:20.800Z,13.43
2023-01-08T02:50:56.098Z,13.66
2023-01-08T02:53:26.426Z,13.68
2023-01-08T02:55:57.340Z,13.82
2023-01-08T02:58:26.442Z,13.62
2023-01-08T03:00:54.841Z,13.89
2023-01-08T03:03:27.260Z,13.64
2023-01-08T03:05:58.645Z,13.65
2023-01-08T03:08:26.232Z,13.70
2023-01-08T03:10:57.165Z,13.92
2023-01-08T03:13:38.172Z,13.91
2023-01-08T03:16:48.147Z,13.89
2023-01-08T03:19:21.203Z,14.07
2023-01-08T03:21:49.388Z,14.10
2023-01-08T03:24:21.223Z,13.99
2023-01-08T03:26:49.079Z,13.79
2023-01-08T03:29:17.998Z,13.63
2023-01-08T03:31:45.995Z,13.62
2023-01-08T03:34:14.697Z,13.65
2023-01-08T03:36:45.296Z,13.62
2023-01-08T03:39:17.060Z,13.49
2023-01-08T03:41:44.684Z,13.80
2023-01-08T03:44:11.921Z,13.78
2023-01-08T03:46:45.021Z,13.91
2023-01-08T03:49:12.736Z,13.80
2023-01-08T03:51:45.203Z,13.38
2023-01-08T03:54:18.123Z,13.83
2023-01-08T03:56:45.776Z,13.75
2023-01-08T03:59:13.769Z,13.67
2023-01-08T04:01:41.524Z,13.25
2023-01-08T04:04:10.568Z,13.26
2023-01-08T04:06:38.052Z,13.25
2023-01-08T04:09:05.329Z,13.43
2023-01-08T04:11:32.936Z,13.50
2023-01-08T04:14:00.249Z,13.38
2023-01-08T04:16:27.744Z,13.45
2023-01-08T04:18:54.975Z,13.62
2023-01-08T04:21:22.238Z,13.35
2023-01-08T04:23:49.582Z,13.38
2023-01-08T04:26:16.841Z,13.14
2023-01-08T04:28:44.143Z,13.47
2023-01-08T04:31:11.538Z,13.44
2023-01-08T04:33:38.954Z,13.64
2023-01-08T04:36:06.279Z,13.45
2023-01-08T04:38:33.484Z,13.58
2023-01-08T04:41:02.290Z,13.70
2023-01-08T04:43:30.946Z,13.25
2023-01-08T04:46:02.600Z,13.32
2023-01-08T04:48:31.094Z,13.27
2023-01-08T04:51:00.229Z,13.14
2023-01-08T04:53:28.383Z,13.28
2023-01-08T04:55:55.822Z,13.43
2023-01-08T04:58:23.044Z,13.58
2023-01-08T05:00:50.369Z,13.18
2023-01-08T05:03:17.689Z,13.56
2023-01-08T05:05:45.088Z,13.35
2023-01-08T05:08:12.324Z,13.46
2023-01-08T05:10:39.578Z,13.66
2023-01-08T05:13:06.933Z,13.78
2023-01-08T05:15:34.270Z,13.52
2023-01-08T05:18:03.984Z,13.31
2023-01-08T05:20:33.000Z,13.40
2023-01-08T05:23:01.552Z,13.51
2023-01-08T05:25:28.779Z,13.37
2023-01-08T05:27:56.080Z,13.41
2023-01-08T05:30:23.536Z,13.30
2023-01-08T05:32:50.797Z,13.54
2023-01-08T05:35:18.416Z,13.32
2023-01-08T05:37:45.692Z,13.41
2023-01-08T05:40:12.961Z,13.96
2023-01-08T05:42:40.196Z,12.74
2023-01-08T05:45:08.533Z,12.76
2023-01-08T05:47:36.789Z,12.17
2023-01-08T05:50:04.340Z,12.14
2023-01-08T05:52:31.613Z,12.80
2023-01-08T05:55:00.175Z,12.79
2023-01-08T05:57:27.617Z,13.01
2023-01-08T05:59:54.943Z,12.97
2023-01-08T06:02:22.232Z,12.99
2023-01-08T06:04:49.560Z,12.80
2023-01-08T06:07:16.782Z,12.69
2023-01-08T06:09:44.165Z,12.79
2023-01-08T06:12:11.471Z,13.10
2023-01-08T06:14:38.845Z,12.93
2023-01-08T06:17:06.078Z,13.27
2023-01-08T06:19:33.467Z,13.00
2023-01-08T06:22:00.678Z,13.12
2023-01-08T06:24:27.912Z,13.43
2023-01-08T06:26:55.224Z,13.29
2023-01-08T06:29:22.423Z,12.96
2023-01-08T06:31:49.843Z,12.85
2023-01-08T06:34:17.197Z,12.74
2023-01-08T06:36:44.482Z,12.75
2023-01-08T06:39:11.778Z,12.81
2023-01-08T06:41:39.112Z,12.82
2023-01-08T06:44:06.332Z,12.48
2023-01-08T06:46:38.393Z,12.41
2023-01-08T06:49:09.606Z,12.50
2023-01-08T06:51:37.129Z,12.37
2023-01-08T06:54:04.523Z,12.56
2023-01-08T06:56:32.232Z,12.41
2023-01-08T06:59:01.516Z,12.60
2023-01-08T07:01:28.835Z,12.54
2023-01-08T07:03:56.100Z,12.55
2023-01-08T07:06:23.984Z,12.58
2023-01-08T07:08:51.360Z,12.61
2023-01-08T07:11:18.700Z,12.50
2023-01-08T07:13:45.999Z,12.62
2023-01-08T07:16:14.671Z,12.50
2023-01-08T07:18:42.921Z,12.34
2023-01-08T07:21:10.435Z,12.63
2023-01-08T07:23:38.418Z,12.63
2023-01-08T07:26:07.572Z,12.69
2023-01-08T07:28:35.053Z,12.64
2023-01-08T07:31:03.953Z,12.79
2023-01-08T07:33:31.263Z,12.60
2023-01-08T07:35:58.564Z,12.46
2023-01-08T07:38:26.163Z,12.61
2023-01-08T07:40:53.800Z,12.64
2023-01-08T07:43:21.020Z,12.53
2023-01-08T07:45:48.462Z,12.44
2023-01-08T07:48:16.552Z,12.69
2023-01-08T07:50:44.312Z,12.43
2023-01-08T07:53:13.646Z,12.51
2023-01-08T07:55:41.027Z,12.55
2023-01-08T07:58:12.878Z,12.49
2023-01-08T08:00:40.359Z,12.59
2023-01-08T08:03:11.396Z,12.17
2023-01-08T08:05:39.035Z,12.32
2023-01-08T08:08:10.593Z,12.61
2023-01-08T08:10:38.751Z,12.62
2023-01-08T08:13:06.387Z,12.13
2023-01-08T08:15:35.709Z,12.46
2023-01-08T08:18:03.649Z,12.20
2023-01-08T08:20:31.172Z,12.10
2023-01-08T08:23:05.955Z,11.83
2023-01-08T08:25:33.574Z,12.11
2023-01-08T08:28:01.576Z,11.92
2023-01-08T08:30:30.532Z,11.80
2023-01-08T08:33:00.772Z,11.97
2023-01-08T08:35:28.557Z,11.71
2023-01-08T08:37:56.478Z,11.97
2023-01-08T08:40:24.366Z,11.96
2023-01-08T08:42:58.628Z,12.03
2023-01-08T08:45:26.517Z,12.13
2023-01-08T08:47:54.134Z,12.35
2023-01-08T08:50:22.066Z,12.00
2023-01-08T08:52:49.331Z,12.05
2023-01-08T08:55:17.248Z,11.83
2023-01-08T08:57:46.107Z,11.58
2023-01-08T09:00:14.607Z,11.47
2023-01-08T09:02:42.693Z,11.91
2023-01-08T09:05:10.993Z,12.02
2023-01-08T09:07:38.328Z,12.20
2023-01-08T09:10:06.319Z,12.31
2023-01-08T09:12:33.655Z,12.63
2023-01-08T09:15:01.006Z,12.94
2023-01-08T09:17:28.246Z,12.59
2023-01-08T09:19:55.552Z,13.02
2023-01-08T09:22:22.731Z,12.69
2023-01-08T09:24:49.969Z,13.02
2023-01-08T09:27:17.324Z,13.12
2023-01-08T09:29:44.642Z,13.31
2023-01-08T09:32:12.472Z,13.44
2023-01-08T09:34:39.928Z,13.53
2023-01-08T09:37:07.241Z,13.45
2023-01-08T09:39:34.562Z,13.62
2023-01-08T09:42:04.169Z,13.61
2023-01-08T09:44:37.292Z,13.69
2023-01-08T09:47:06.539Z,13.68
2023-01-08T09:49:40.498Z,13.65
2023-01-08T09:52:11.976Z,13.71
2023-01-08T09:54:40.718Z,13.77
2023-01-08T09:57:14.103Z,13.93
2023-01-08T09:59:42.035Z,14.19
2023-01-08T10:02:15.589Z,14.06
2023-01-08T10:04:44.463Z,13.88
2023-01-08T10:07:21.246Z,14.02
2023-01-08T10:09:51.909Z,14.07
2023-01-08T10:12:31.110Z,13.96
2023-01-08T10:15:12.571Z,13.97
2023-01-08T10:17:40.862Z,13.99
2023-01-08T10:20:12.047Z,14.03
2023-01-08T10:22:39.394Z,14.09
2023-01-08T10:25:18.025Z,14.10
2023-01-08T10:27:51.300Z,14.16
2023-01-08T10:30:33.181Z,14.18
2023-01-08T10:33:07.215Z,14.26
2023-01-08T10:35:37.747Z,14.39
2023-01-08T10:38:04.984Z,14.43
2023-01-08T10:40:44.842Z,14.31
2023-01-08T10:43:15.559Z,14.26
2023-01-08T10:45:44.281Z,14.38
2023-01-08T10:48:18.389Z,14.24
2023-01-08T10:50:45.783Z,14.33
2023-01-08T10:53:24.960Z,14.30
2023-01-08T10:55:59.902Z,14.28
2023-01-08T10:58:29.157Z,14.49
2023-01-08T11:01:09.485Z,14.68
2023-01-08T11:03:36.932Z,14.56
2023-01-08T11:06:11.851Z,14.50
2023-01-08T11:08:39.313Z,14.48
2023-01-08T11:11:08.507Z,14.50
2023-01-08T11:13:35.911Z,14.56
2023-01-08T11:16:10.461Z,14.54
2023-01-08T11:18:49.069Z,14.61
2023-01-08T11:21:24.717Z,14.69
2023-01-08T11:24:11.609Z,14.40
2023-01-08T11:26:40.857Z,14.69
2023-01-08T11:29:18.184Z,14.41
2023-01-08T11:31:56.441Z,14.52
2023-01-08T11:34:43.975Z,14.71
2023-01-08T11:37:15.226Z,14.45
2023-01-08T11:39:44.527Z,14.51
2023-01-08T11:42:33.724Z,14.54
2023-01-08T11:45:12.111Z,14.51
2023-01-08T11:48:00.247Z,14.84
2023-01-08T11:50:35.973Z,14.89
2023-01-08T11:53:15.485Z,15.03
2023-01-08T11:55:55.080Z,14.99
2023-01-08T11:58:45.097Z,14.68
2023-01-08T12:01:15.711Z,14.55
2023-01-08T12:04:00.669Z,14.68
2023-01-08T12:06:59.423Z,14.34
2023-01-08T12:09:38.555Z,14.39
2023-01-08T12:12:27.151Z,14.70
2023-01-08T12:15:03.743Z,14.75
2023-01-08T12:17:57.429Z,14.34
2023-01-08T12:21:22.461Z,14.33
2023-01-08T12:24:21.378Z,14.30
2023-01-08T12:27:13.705Z,14.84
2023-01-08T12:30:06.041Z,14.79
2023-01-08T12:32:37.576Z,14.56
2023-01-08T12:35:21.719Z,14.67
2023-01-08T12:37:53.237Z,14.73
2023-01-08T12:40:22.067Z,14.92
2023-01-08T12:43:00.079Z,14.88
2023-01-08T12:45:30.736Z,14.85
2023-01-08T12:48:24.953Z,14.26
2023-01-08T12:51:11.955Z,14.33
2023-01-08T12:53:58.053Z,14.13
2023-01-08T12:56:34.141Z,14.43
2023-01-08T12:59:07.323Z,14.40
2023-01-08T13:01:45.964Z,14.57
2023-01-08T13:04:13.686Z,14.42
2023-01-08T13:07:12.162Z,14.31
2023-01-08T13:09:39.692Z,14.06
2023-01-08T13:12:07.123Z,14.14
2023-01-08T13:14:41.733Z,14.60
2023-01-08T13:17:20.239Z,14.84
2023-01-08T13:19:53.196Z,14.03
2023-01-08T13:22:25.207Z,14.51
2023-01-08T13:24:52.633Z,14.19
2023-01-08T13:27:29.280Z,14.58
2023-01-08T13:29:58.199Z,14.55
2023-01-08T13:32:34.769Z,14.63
2023-01-08T13:35:17.985Z,14.96
2023-01-08T13:37:47.777Z,14.72
2023-01-08T13:40:48.132Z,14.81
2023-01-08T13:43:19.962Z,14.97
2023-01-08T13:45:54.603Z,15.07
2023-01-08T13:48:23.511Z,15.06
2023-01-08T13:50:51.265Z,14.63
2023-01-08T13:53:19.156Z,14.78
2023-01-08T13:56:07.149Z,15.17
2023-01-08T13:58:44.653Z,15.21
2023-01-08T14:01:13.041Z,15.05
2023-01-08T14:03:46.517Z,15.08
2023-01-08T14:06:18.016Z,15.02
2023-01-08T14:08:56.763Z,14.38
2023-01-08T14:11:47.716Z,14.65
2023-01-08T14:14:20.737Z,14.88
2023-01-08T14:16:49.031Z,15.07
2023-01-08T14:19:24.388Z,15.09
2023-01-08T14:21:53.869Z,15.09
2023-01-08T14:24:22.688Z,15.08
2023-01-08T14:26:55.600Z,15.02
2023-01-08T14:29:26.245Z,14.84
2023-01-08T14:31:59.084Z,15.04
2023-01-08T14:34:29.770Z,14.71
2023-01-08T14:36:57.616Z,14.45
2023-01-08T14:39:35.140Z,14.43
2023-01-08T14:42:44.443Z,14.31
2023-01-08T14:45:31.700Z,14.52
2023-01-08T14:48:10.572Z,14.29
2023-01-08T14:50:40.992Z,14.59
2023-01-08T14:53:22.073Z,14.65
2023-01-08T14:55:50.269Z,14.62
2023-01-08T14:58:22.124Z,14.68
2023-01-08T15:00:55.645Z,14.74
2023-01-08T15:03:38.298Z,14.50
2023-01-08T15:06:07.324Z,14.40
2023-01-08T15:08:42.690Z,14.32
2023-01-08T15:11:19.423Z,14.24
2023-01-08T15:13:48.543Z,14.16
2023-01-08T15:16:34.694Z,14.42
2023-01-08T15:19:12.993Z,14.33
2023-01-08T15:21:46.239Z,14.43
2023-01-08T15:24:25.723Z,14.19
2023-01-08T15:26:53.572Z,14.40
2023-01-08T15:29:34.425Z,14.19
2023-01-08T15:32:30.353Z,14.07
2023-01-08T15:34:57.733Z,14.41
2023-01-08T15:37:25.266Z,14.36
2023-01-08T15:39:52.556Z,14.31
2023-01-08T15:42:44.169Z,14.35
2023-01-08T15:45:16.761Z,14.03
2023-01-08T15:47:44.038Z,14.14
2023-01-08T15:50:11.967Z,14.30
2023-01-08T15:52:41.383Z,14.23
2023-01-08T15:55:20.520Z,14.14
2023-01-08T15:57:48.260Z,14.19
2023-01-08T16:00:17.196Z,14.09
2023-01-08T16:02:47.137Z,14.29
2023-01-08T16:05:16.364Z,14.15
2023-01-08T16:07:46.034Z,14.04
2023-01-08T16:10:17.509Z,14.11
2023-01-08T16:12:44.990Z,14.04
2023-01-08T16:15:13.566Z,13.91
2023-01-08T16:17:41.032Z,14.02
2023-01-08T16:20:09.478Z,13.81
2023-01-08T16:22:36.842Z,13.91
2023-01-08T16:25:04.441Z,13.97
2023-01-08T16:27:32.277Z,13.90
2023-01-08T16:29:59.787Z,13.71
2023-01-08T16:32:27.033Z,13.63
2023-01-08T16:34:55.135Z,13.90
2023-01-08T16:37:22.778Z,13.56
2023-01-08T16:39:49.991Z,13.69
2023-01-08T16:42:17.419Z,13.78
2023-01-08T16:44:44.628Z,13.63
2023-01-08T16:47:11.812Z,13.86
2023-01-08T16:49:41.562Z,13.67
2023-01-08T16:52:09.526Z,13.65
2023-01-08T16:54:36.951Z,13.81
2023-01-08T16:57:04.395Z,13.78
2023-01-08T16:59:33.096Z,13.93
2023-01-08T17:02:00.590Z,13.97
2023-01-08T17:04:31.090Z,13.93
2023-01-08T17:06:58.735Z,13.85
2023-01-08T17:09:26.022Z,13.82
2023-01-08T17:11:53.397Z,13.52
2023-01-08T17:14:20.849Z,13.94
2023-01-08T17:16:49.178Z,13.95
2023-01-08T17:19:17.562Z,13.71
2023-01-08T17:21:45.963Z,13.58
2023-01-08T17:24:13.324Z,13.75
2023-01-08T17:26:40.612Z,13.57
2023-01-08T17:29:07.982Z,13.61
2023-01-08T17:31:40.013Z,13.45
2023-01-08T17:34:08.992Z,13.66
2023-01-08T17:36:36.315Z,13.81
2023-01-08T17:39:04.047Z,13.56
2023-01-08T17:41:49.842Z,13.43
2023-01-08T17:44:17.105Z,13.81
2023-01-08T17:46:45.367Z,13.99
2023-01-08T17:49:14.206Z,13.72
2023-01-08T17:51:43.193Z,13.74
2023-01-08T17:54:15.095Z,13.62
2023-01-08T17:56:43.205Z,13.79
2023-01-08T17:59:15.085Z,13.76
2023-01-08T18:01:42.605Z,13.54
2023-01-08T18:04:10.053Z,13.72
2023-01-08T18:06:37.593Z,13.45
2023-01-08T18:09:04.980Z,13.41
2023-01-08T18:11:33.212Z,13.34
2023-01-08T18:14:01.596Z,13.30
2023-01-08T18:16:30.053Z,13.42
2023-01-08T18:18:58.292Z,13.29
2023-01-08T18:21:26.703Z,13.24
2023-01-08T18:23:54.430Z,13.41
2023-01-08T18:26:22.700Z,13.39
2023-01-08T18:28:51.753Z,13.29
2023-01-08T18:31:19.185Z,12.95
2023-01-08T18:33:49.766Z,12.69
2023-01-08T18:36:17.147Z,12.84
2023-01-08T18:38:44.595Z,12.93
2023-01-08T18:41:33.353Z,13.23
2023-01-08T18:44:00.895Z,13.14
2023-01-08T18:46:28.363Z,13.44
2023-01-08T18:48:55.986Z,13.42
2023-01-08T18:51:23.772Z,13.28
2023-01-08T18:53:51.148Z,12.99
2023-01-08T18:56:26.930Z,13.24
2023-01-08T18:58:54.213Z,13.46
2023-01-08T19:01:21.840Z,13.26
2023-01-08T19:03:49.232Z,13.27
2023-01-08T19:06:17.638Z,13.18
2023-01-08T19:08:45.245Z,13.31
2023-01-08T19:11:13.152Z,13.33
2023-01-08T19:13:40.824Z,13.19
2023-01-08T19:16:11.018Z,13.38
2023-01-08T19:18:38.429Z,13.49
2023-01-08T19:21:06.814Z,13.46
2023-01-08T19:23:34.534Z,13.37
2023-01-08T19:26:08.760Z,13.64
2023-01-08T19:28:37.500Z,13.56
2023-01-08T19:31:04.830Z,13.45
2023-01-08T19:33:32.566Z,13.17
2023-01-08T19:36:08.625Z,13.04
2023-01-08T19:38:35.984Z,12.97
2023-01-08T19:41:03.346Z,13.14
2023-01-08T19:43:42.727Z,13.75
2023-01-08T19:46:15.455Z,13.51
2023-01-08T19:48:44.094Z,13.58
2023-01-08T19:51:12.907Z,13.52
2023-01-08T19:53:40.827Z,13.30
2023-01-08T19:56:11.086Z,13.09
2023-01-08T19:58:38.269Z,13.36
2023-01-08T20:01:22.730Z,12.89
2023-01-08T20:03:50.306Z,13.01
2023-01-08T20:06:20.361Z,13.36
2023-01-08T20:08:48.958Z,13.18
2023-01-08T20:11:17.742Z,13.32
2023-01-08T20:13:45.369Z,13.10
2023-01-08T20:16:15.208Z,13.32
2023-01-08T20:18:43.052Z,12.86
2023-01-08T20:21:18.286Z,12.21
2023-01-08T20:23:45.640Z,12.69
2023-01-08T20:26:15.919Z,12.20
2023-01-08T20:28:43.406Z,12.52
2023-01-08T20:31:15.688Z,12.65
2023-01-08T20:33:43.961Z,12.14
2023-01-08T20:36:14.707Z,12.38
2023-01-08T20:38:43.495Z,12.27
2023-01-08T20:41:11.488Z,12.25
2023-01-08T20:43:39.757Z,12.31
2023-01-08T20:46:09.815Z,12.05
2023-01-08T20:48:47.014Z,12.33
2023-01-08T20:51:15.620Z,11.76
2023-01-08T20:53:42.865Z,12.00
2023-01-08T20:56:12.350Z,12.16
2023-01-08T20:58:41.900Z,12.28
2023-01-08T21:01:17.560Z,12.42
2023-01-08T21:03:46.336Z,12.02
2023-01-08T21:06:16.486Z,12.35
2023-01-08T21:08:44.177Z,12.10
2023-01-08T21:11:12.468Z,11.82
2023-01-08T21:13:40.403Z,11.55
2023-01-08T21:16:11.358Z,11.94
2023-01-08T21:18:40.552Z,11.63
2023-01-08T21:21:08.217Z,11.53
2023-01-08T21:23:35.574Z,11.48
2023-01-08T21:26:05.390Z,10.90
2023-01-08T21:28:33.125Z,11.76
2023-01-08T21:31:11.434Z,11.96
2023-01-08T21:33:39.056Z,10.67
2023-01-08T21:36:08.561Z,10.72
2023-01-08T21:38:36.700Z,10.39
2023-01-08T21:41:06.841Z,10.55
2023-01-08T21:43:53.034Z,11.17
2023-01-08T21:46:21.192Z,10.54
2023-01-08T21:48:50.211Z,11.16
2023-01-08T21:51:36.744Z,11.55
2023-01-08T21:54:04.487Z,11.35
2023-01-08T21:56:31.751Z,11.19
2023-01-08T21:58:59.005Z,11.09
2023-01-08T22:01:26.388Z,11.04
2023-01-08T22:03:54.038Z,11.27
2023-01-08T22:06:21.378Z,11.12
2023-01-08T22:08:53.343Z,11.20
2023-01-08T22:11:21.287Z,10.66
2023-01-08T22:13:48.679Z,11.18
2023-01-08T22:16:16.078Z,11.52
2023-01-08T22:18:43.444Z,11.52
2023-01-08T22:21:12.981Z,11.26
2023-01-08T22:23:40.413Z,11.23
2023-01-08T22:26:09.786Z,11.27
2023-01-08T22:28:39.590Z,11.72
2023-01-08T22:31:11.283Z,11.49
2023-01-08T22:33:39.730Z,11.32
2023-01-08T22:36:09.997Z,11.71
2023-01-08T22:38:37.942Z,11.57
2023-01-08T22:41:10.973Z,10.88
2023-01-08T22:43:38.305Z,11.38
2023-01-08T22:46:05.798Z,11.50
2023-01-08T22:48:33.046Z,11.71
2023-01-08T22:51:04.038Z,11.07
2023-01-08T22:53:31.259Z,11.45
2023-01-08T22:55:59.034Z,12.10
2023-01-08T22:58:27.558Z,11.93
2023-01-08T23:00:55.162Z,11.78
2023-01-08T23:03:22.551Z,11.47
2023-01-08T23:05:49.851Z,12.00
2023-01-08T23:08:17.138Z,11.88
2023-01-08T23:10:44.829Z,12.03
2023-01-08T23:13:12.096Z,11.72
2023-01-08T23:15:39.524Z,11.83
2023-01-08T23:18:06.839Z,11.66
2023-01-08T23:20:34.138Z,11.52
2023-01-08T23:23:01.406Z,11.53
2023-01-08T23:25:30.085Z,12.01
2023-01-08T23:27:57.826Z,12.01
2023-01-08T23:30:33.511Z,11.83
2023-01-08T23:33:01.210Z,11.49
2023-01-08T23:35:28.473Z,11.88
2023-01-08T23:37:56.163Z,11.75
2023-01-08T23:40:23.400Z,11.70
2023-01-08T23:42:50.664Z,11.52
2023-01-08T23:45:18.069Z,11.73
2023-01-08T23:47:45.503Z,11.78
2023-01-08T23:50:13.013Z,11.73
2023-01-08T23:52:40.309Z,11.82
2023-01-08T23:55:07.976Z,11.70
2023-01-08T23:57:35.195Z,11.57
